Time;durP1;ratioP1;P1;durP2;ratioP2;P2;SDS_P1;SDS_P2;PMS_P1;PMS_P2;Temp;Humidity;BMP_temperature;BMP_pressure;BME280_temperature;BME280_humidity;BME280_pressure;Samples;Min_cycle;Max_cycle;Signal;HPM_P1;HPM_P2
2023/03/17 00:00:11;;;;;;;1.42;0.90;;;20.10;66.40;;;;;;5040702;28;20192;-64
2023/03/17 00:02:40;;;;;;;2.80;1.00;;;20.10;66.50;;;;;;5041801;28;20196;-55
2023/03/17 00:05:16;;;;;;;1.10;0.80;;;20.10;66.50;;;;;;5041764;28;20287;-55
2023/03/17 00:07:43;;;;;;;1.25;1.10;;;20.10;66.50;;;;;;5041011;28;20198;-57
2023/03/17 00:10:16;;;;;;;3.33;0.90;;;20.10;66.50;;;;;;5037824;28;20188;-59
2023/03/17 00:12:43;;;;;;;2.88;1.30;;;20.10;66.40;;;;;;5038611;28;20223;-56
2023/03/17 00:15:11;;;;;;;4.13;0.90;;;20.10;66.40;;;;;;5045281;28;20200;-56
2023/03/17 00:17:38;;;;;;;1.70;0.90;;;20.00;66.30;;;;;;5042888;28;20576;-57
2023/03/17 00:20:06;;;;;;;1.27;0.90;;;20.00;66.30;;;;;;5046611;28;20191;-55
2023/03/17 00:22:34;;;;;;;2.03;0.90;;;20.00;66.40;;;;;;5048196;28;20247;-56
2023/03/17 00:25:01;;;;;;;1.52;1.00;;;20.00;66.40;;;;;;5038999;28;20572;-60
2023/03/17 00:27:28;;;;;;;1.45;0.80;;;20.00;66.40;;;;;;5044192;28;20203;-53
2023/03/17 00:29:55;;;;;;;2.88;1.15;;;20.00;66.40;;;;;;5046603;28;20655;-55
2023/03/17 00:32:22;;;;;;;1.65;1.05;;;20.00;66.40;;;;;;5043042;28;20218;-51
2023/03/17 00:34:49;;;;;;;3.63;1.05;;;20.00;66.30;;;;;;5048778;28;20269;-58
2023/03/17 00:37:15;;;;;;;2.47;0.90;;;20.00;66.40;;;;;;5046103;28;20195;-53
2023/03/17 00:39:43;;;;;;;1.35;1.00;;;20.00;66.40;;;;;;5046944;28;20211;-52
2023/03/17 00:42:10;;;;;;;1.27;0.90;;;20.00;66.40;;;;;;5046601;28;20234;-50
2023/03/17 00:44:37;;;;;;;1.30;0.80;;;20.00;66.30;;;;;;5048142;28;20589;-56
2023/03/17 00:47:04;;;;;;;1.40;1.00;;;20.00;66.40;;;;;;5040034;28;20199;-51
2023/03/17 00:49:31;;;;;;;1.33;0.85;;;20.00;66.40;;;;;;5042352;28;20203;-56
2023/03/17 00:51:59;;;;;;;2.83;1.05;;;19.90;66.20;;;;;;5041917;28;20270;-59
2023/03/17 00:54:25;;;;;;;2.20;1.05;;;19.90;66.20;;;;;;5034912;28;20225;-56
2023/03/17 00:56:54;;;;;;;1.65;0.98;;;19.90;66.20;;;;;;5041451;28;20584;-52
2023/03/17 00:59:26;;;;;;;1.50;0.90;;;19.90;66.20;;;;;;5043909;28;20660;-54
2023/03/17 01:01:53;;;;;;;1.00;0.70;;;19.90;66.20;;;;;;5036620;28;20668;-53
2023/03/17 01:04:20;;;;;;;1.38;1.23;;;19.90;66.20;;;;;;5044744;28;20196;-52
2023/03/17 01:06:47;;;;;;;1.25;0.80;;;19.90;66.20;;;;;;5042434;28;20188;-52
2023/03/17 01:09:15;;;;;;;1.75;1.05;;;19.90;66.20;;;;;;5040259;28;20651;-53
2023/03/17 01:11:42;;;;;;;1.40;0.98;;;19.90;66.30;;;;;;5035536;28;20220;-60
2023/03/17 01:14:11;;;;;;;2.20;0.93;;;19.90;66.20;;;;;;5038929;28;20196;-57
2023/03/17 01:16:38;;;;;;;1.08;0.88;;;19.90;66.30;;;;;;5041479;28;20202;-52
2023/03/17 01:19:05;;;;;;;1.20;0.90;;;19.90;66.40;;;;;;5043670;28;20556;-57
2023/03/17 01:21:32;;;;;;;1.45;0.90;;;19.90;66.30;;;;;;5043291;28;20215;-53
2023/03/17 01:23:59;;;;;;;2.22;1.02;;;19.90;66.30;;;;;;5041442;28;20192;-55
2023/03/17 01:26:26;;;;;;;1.17;0.82;;;19.90;66.30;;;;;;5038478;28;20200;-55
2023/03/17 01:28:52;;;;;;;1.13;0.73;;;19.90;66.30;;;;;;5045173;28;20696;-53
2023/03/17 01:31:21;;;;;;;4.10;0.73;;;19.90;66.30;;;;;;5045812;28;20215;-57
2023/03/17 01:33:48;;;;;;;1.30;1.00;;;19.90;66.30;;;;;;5045328;28;20270;-53
2023/03/17 01:36:16;;;;;;;0.90;0.80;;;19.90;66.40;;;;;;5046655;28;20218;-57
2023/03/17 01:38:43;;;;;;;1.15;0.85;;;19.90;66.40;;;;;;5038963;28;20192;-57
2023/03/17 01:41:11;;;;;;;1.02;0.80;;;19.90;66.40;;;;;;5032642;28;20192;-56
2023/03/17 01:43:38;;;;;;;1.80;0.90;;;19.90;66.40;;;;;;5043978;28;20210;-55
2023/03/17 01:46:28;;;;;;;1.00;0.80;;;19.80;66.20;;;;;;5035617;28;20203;-56
2023/03/17 01:49:08;;;;;;;1.27;1.00;;;19.80;66.20;;;;;;5030340;28;20214;-64
2023/03/17 01:51:39;;;;;;;2.15;0.85;;;19.80;66.60;;;;;;5041923;28;20300;-59
2023/03/17 01:54:09;;;;;;;0.90;0.70;;;19.80;66.20;;;;;;5045113;28;20191;-55
2023/03/17 01:56:37;;;;;;;1.25;0.77;;;19.80;66.20;;;;;;5043485;28;20234;-55
2023/03/17 01:59:07;;;;;;;1.20;0.90;;;19.80;66.20;;;;;;5041671;28;20199;-53
2023/03/17 02:01:38;;;;;;;2.75;0.93;;;19.80;66.20;;;;;;5043917;28;20195;-53
2023/03/17 02:04:07;;;;;;;1.55;0.90;;;19.80;66.30;;;;;;5044499;28;20572;-58
2023/03/17 02:06:34;;;;;;;1.58;0.90;;;19.80;66.30;;;;;;5045966;28;20222;-57
2023/03/17 02:09:02;;;;;;;0.90;0.80;;;19.80;66.20;;;;;;5041778;28;20196;-50
2023/03/17 02:11:29;;;;;;;1.35;0.95;;;19.80;66.20;;;;;;5038017;28;20224;-51
2023/03/17 02:13:56;;;;;;;3.28;0.85;;;19.80;66.20;;;;;;5037234;28;20202;-53
2023/03/17 02:16:22;;;;;;;1.00;0.80;;;19.80;66.20;;;;;;5041807;28;20199;-64
2023/03/17 02:18:51;;;;;;;0.90;0.70;;;19.80;66.20;;;;;;5047298;28;20736;-52
2023/03/17 02:21:37;;;;;;;2.95;0.90;;;19.80;66.20;;;;;;5035696;28;20188;-55
2023/03/17 02:24:09;;;;;;;1.95;1.10;;;19.70;66.00;;;;;;5032731;28;20199;-53
2023/03/17 02:26:37;;;;;;;1.05;0.80;;;19.70;66.10;;;;;;5036261;28;20219;-53
2023/03/17 02:29:05;;;;;;;1.10;0.80;;;19.70;66.10;;;;;;5037826;28;20626;-55
2023/03/17 02:31:33;;;;;;;1.50;1.40;;;19.70;66.10;;;;;;5037915;28;20666;-56
2023/03/17 02:34:00;;;;;;;1.35;0.75;;;19.70;66.10;;;;;;5036991;28;20198;-55
2023/03/17 02:36:27;;;;;;;0.98;0.73;;;19.70;66.10;;;;;;5040742;28;20214;-55
2023/03/17 02:38:56;;;;;;;1.75;1.02;;;19.70;66.10;;;;;;5038545;28;20275;-58
2023/03/17 02:41:23;;;;;;;1.40;1.13;;;19.70;66.10;;;;;;5045371;28;20203;-53
2023/03/17 02:43:50;;;;;;;1.00;0.70;;;19.70;66.10;;;;;;5041941;28;20238;-59
2023/03/17 02:46:17;;;;;;;1.17;0.90;;;19.70;66.10;;;;;;5044341;28;20615;-56
2023/03/17 02:48:45;;;;;;;1.33;0.80;;;19.70;66.10;;;;;;5040558;28;20659;-51
2023/03/17 02:51:13;;;;;;;1.08;0.95;;;19.70;66.10;;;;;;5041752;28;20656;-51
2023/03/17 02:53:40;;;;;;;1.23;0.80;;;19.70;66.20;;;;;;5042186;28;20223;-53
2023/03/17 02:56:09;;;;;;;2.45;0.90;;;19.70;66.20;;;;;;5035362;28;20200;-51
2023/03/17 02:58:35;;;;;;;1.80;1.05;;;19.70;66.20;;;;;;5035294;28;20216;-52
2023/03/17 03:01:02;;;;;;;1.00;0.75;;;19.70;66.20;;;;;;5042313;28;20203;-57
2023/03/17 03:03:29;;;;;;;0.90;0.70;;;19.70;66.20;;;;;;5046722;28;20231;-52
2023/03/17 03:05:57;;;;;;;1.02;0.73;;;19.70;66.20;;;;;;5048041;28;20653;-59
2023/03/17 03:08:24;;;;;;;0.90;0.70;;;19.70;66.10;;;;;;5047793;28;20193;-55
2023/03/17 03:10:51;;;;;;;1.13;0.70;;;19.70;66.10;;;;;;5044356;28;20207;-53
2023/03/17 03:13:19;;;;;;;1.35;1.25;;;19.70;66.20;;;;;;5043682;28;20219;-59
2023/03/17 03:15:46;;;;;;;1.15;0.88;;;19.70;66.20;;;;;;5046544;28;20555;-51
2023/03/17 03:18:13;;;;;;;0.90;0.70;;;19.70;66.20;;;;;;5044500;28;20659;-54
2023/03/17 03:20:42;;;;;;;1.40;0.85;;;19.70;66.20;;;;;;5043470;28;20196;-53
2023/03/17 03:23:09;;;;;;;0.93;0.70;;;19.70;66.20;;;;;;5034587;28;20212;-53
2023/03/17 03:25:36;;;;;;;1.00;0.80;;;19.70;66.20;;;;;;5039918;28;20191;-52
2023/03/17 03:28:04;;;;;;;1.13;0.80;;;19.70;66.20;;;;;;5037610;28;20254;-52
2023/03/17 03:30:32;;;;;;;0.90;0.70;;;19.60;66.10;;;;;;5041112;28;20687;-54
2023/03/17 03:32:59;;;;;;;1.85;0.90;;;19.60;66.00;;;;;;5041082;28;20278;-50
2023/03/17 03:35:26;;;;;;;1.30;0.80;;;19.60;66.00;;;;;;5039897;28;20188;-51
2023/03/17 03:37:53;;;;;;;0.95;0.80;;;19.60;66.00;;;;;;5042995;28;20207;-54
2023/03/17 03:40:20;;;;;;;0.90;0.70;;;19.60;66.10;;;;;;5041149;28;20191;-53
2023/03/17 03:42:47;;;;;;;3.72;1.70;;;19.60;66.10;;;;;;5036271;28;20196;-53
2023/03/17 03:45:14;;;;;;;2.75;0.80;;;19.60;66.10;;;;;;5042274;28;20191;-54
2023/03/17 03:47:42;;;;;;;1.00;0.80;;;19.60;66.20;;;;;;5044910;28;20219;-54
2023/03/17 03:50:10;;;;;;;1.40;0.90;;;19.60;66.10;;;;;;5041970;28;20564;-54
2023/03/17 03:52:37;;;;;;;1.33;0.95;;;19.60;66.10;;;;;;5046288;28;20582;-56
2023/03/17 03:55:05;;;;;;;1.27;0.90;;;19.60;66.10;;;;;;5038117;28;20200;-54
2023/03/17 03:57:32;;;;;;;1.40;0.95;;;19.60;66.10;;;;;;5039995;28;20188;-53
2023/03/17 03:59:59;;;;;;;1.52;0.90;;;19.60;66.00;;;;;;5039600;28;20196;-55
2023/03/17 04:02:25;;;;;;;0.93;0.80;;;19.60;66.10;;;;;;5040568;28;20196;-55
2023/03/17 04:04:54;;;;;;;1.20;0.90;;;19.60;66.10;;;;;;5039882;28;20565;-53
2023/03/17 04:07:21;;;;;;;1.10;0.88;;;19.60;66.10;;;;;;5038553;28;20196;-54
2023/03/17 04:09:48;;;;;;;1.08;0.75;;;19.60;66.10;;;;;;5035787;28;20232;-53
2023/03/17 04:12:15;;;;;;;2.65;1.13;;;19.60;66.10;;;;;;5038699;28;20692;-53
2023/03/17 04:14:43;;;;;;;1.00;0.75;;;19.60;66.10;;;;;;5040989;28;20216;-60
2023/03/17 04:17:10;;;;;;;1.00;0.80;;;19.60;66.00;;;;;;5038390;28;20614;-61
2023/03/17 04:19:37;;;;;;;1.17;1.00;;;19.60;66.10;;;;;;5047083;28;20211;-58
2023/03/17 04:22:05;;;;;;;1.33;0.80;;;19.60;66.10;;;;;;5044349;28;20557;-54
2023/03/17 04:24:33;;;;;;;1.13;0.80;;;19.60;66.10;;;;;;5044258;28;20206;-54
2023/03/17 04:27:00;;;;;;;1.10;0.80;;;19.60;66.10;;;;;;5042826;28;20287;-56
2023/03/17 04:29:27;;;;;;;6.20;0.93;;;19.60;66.20;;;;;;5043777;28;20591;-53
2023/03/17 04:31:54;;;;;;;0.90;0.70;;;19.60;66.10;;;;;;5045103;28;20203;-54
2023/03/17 04:34:21;;;;;;;0.90;0.70;;;19.60;66.10;;;;;;5041282;28;20411;-59
2023/03/17 04:36:48;;;;;;;1.00;0.80;;;19.60;66.10;;;;;;5047770;28;20651;-54
2023/03/17 04:39:17;;;;;;;1.13;0.80;;;19.60;66.00;;;;;;5045737;28;20215;-56
2023/03/17 04:41:43;;;;;;;1.00;0.70;;;19.50;65.90;;;;;;5040750;28;20192;-59
2023/03/17 04:44:10;;;;;;;1.33;1.10;;;19.50;66.00;;;;;;5047680;28;20199;-56
2023/03/17 04:46:37;;;;;;;1.02;0.75;;;19.60;66.10;;;;;;5039521;28;20204;-56
2023/03/17 04:49:04;;;;;;;1.20;0.82;;;19.60;66.10;;;;;;5038154;28;20580;-52
2023/03/17 04:51:31;;;;;;;0.90;0.80;;;19.50;66.00;;;;;;5040855;28;20192;-52
2023/03/17 04:53:57;;;;;;;0.90;0.70;;;19.60;66.00;;;;;;5041279;28;20289;-59
2023/03/17 04:56:25;;;;;;;1.10;0.80;;;19.50;65.90;;;;;;5045013;28;20202;-57
2023/03/17 04:58:52;;;;;;;1.00;0.75;;;19.50;66.00;;;;;;5036151;28;20212;-61
2023/03/17 05:01:21;;;;;;;1.40;0.90;;;19.50;65.90;;;;;;5042863;28;20196;-56
2023/03/17 05:03:47;;;;;;;0.90;0.70;;;19.50;65.90;;;;;;5036804;28;20237;-55
2023/03/17 05:06:15;;;;;;;1.38;0.90;;;19.50;66.00;;;;;;5040138;28;20267;-54
2023/03/17 05:08:43;;;;;;;1.15;0.70;;;19.50;66.00;;;;;;5048401;28;20187;-55
2023/03/17 05:11:10;;;;;;;0.90;0.70;;;19.50;66.00;;;;;;5041384;28;20277;-57
2023/03/17 05:13:39;;;;;;;0.80;0.60;;;19.50;66.00;;;;;;5037307;28;20713;-59
2023/03/17 05:16:07;;;;;;;1.00;0.80;;;19.50;66.00;;;;;;5042988;28;20203;-58
2023/03/17 05:18:34;;;;;;;1.85;0.80;;;19.50;66.00;;;;;;5036852;28;20549;-55
2023/03/17 05:21:01;;;;;;;0.95;0.70;;;19.50;66.00;;;;;;5044474;28;20191;-61
2023/03/17 05:23:29;;;;;;;0.93;0.77;;;19.50;65.90;;;;;;5038856;28;20303;-56
2023/03/17 05:25:55;;;;;;;1.10;0.80;;;19.50;66.00;;;;;;5044632;28;20695;-59
2023/03/17 05:28:23;;;;;;;1.20;0.70;;;19.60;66.10;;;;;;5039989;28;20204;-54
2023/03/17 05:30:51;;;;;;;0.80;0.70;;;19.50;66.00;;;;;;5045073;28;20714;-56
2023/03/17 05:33:19;;;;;;;1.30;1.10;;;19.50;66.00;;;;;;5038896;28;20683;-53
2023/03/17 05:35:46;;;;;;;1.00;0.80;;;19.50;66.00;;;;;;5047725;28;20203;-58
2023/03/17 05:38:14;;;;;;;2.03;1.00;;;19.50;66.00;;;;;;5040886;28;20220;-52
2023/03/17 05:40:44;;;;;;;1.00;0.75;;;19.50;65.90;;;;;;5042536;28;20234;-57
2023/03/17 05:43:11;;;;;;;1.23;0.95;;;19.50;65.90;;;;;;5036481;28;20277;-54
2023/03/17 05:45:38;;;;;;;0.95;0.70;;;19.50;66.00;;;;;;5041807;28;20195;-54
2023/03/17 05:48:06;;;;;;;0.90;0.80;;;19.50;66.80;;;;;;5037262;28;20196;-57
2023/03/17 05:50:33;;;;;;;0.90;0.68;;;19.50;66.00;;;;;;5039546;28;20222;-51
2023/03/17 05:53:00;;;;;;;0.90;0.73;;;19.50;66.00;;;;;;5038732;28;20219;-56
2023/03/17 05:55:27;;;;;;;0.90;0.77;;;19.50;66.00;;;;;;5044781;28;20230;-61
2023/03/17 05:57:54;;;;;;;1.20;0.70;;;19.50;66.00;;;;;;5043730;28;20192;-56
2023/03/17 06:00:22;;;;;;;0.90;0.70;;;19.50;65.90;;;;;;5043575;28;20666;-55
2023/03/17 06:02:49;;;;;;;0.90;0.70;;;19.50;65.90;;;;;;5044908;28;20564;-57
2023/03/17 06:05:17;;;;;;;1.10;0.70;;;19.50;66.00;;;;;;5042480;28;20563;-58
2023/03/17 06:07:44;;;;;;;1.65;0.93;;;19.50;66.00;;;;;;5046323;28;20202;-54
2023/03/17 06:10:12;;;;;;;0.95;0.75;;;19.50;65.90;;;;;;5046678;28;20198;-51
2023/03/17 06:12:39;;;;;;;0.90;0.73;;;19.50;66.00;;;;;;5036877;28;20196;-58
2023/03/17 06:15:08;;;;;;;1.10;0.80;;;19.50;65.90;;;;;;5038799;28;20192;-62
2023/03/17 06:17:35;;;;;;;1.08;0.90;;;19.50;65.90;;;;;;5033707;28;20655;-54
2023/03/17 06:20:03;;;;;;;1.02;0.70;;;19.50;66.00;;;;;;5042488;28;20575;-53
2023/03/17 06:22:31;;;;;;;1.05;0.77;;;19.50;65.90;;;;;;5037489;28;20219;-60
2023/03/17 06:24:58;;;;;;;0.90;0.70;;;19.50;65.80;;;;;;5047966;28;20192;-58
2023/03/17 06:27:25;;;;;;;0.98;0.70;;;19.50;65.80;;;;;;5037610;28;20636;-54
2023/03/17 06:29:52;;;;;;;1.02;0.65;;;19.50;65.80;;;;;;5039907;28;20203;-53
2023/03/17 06:32:18;;;;;;;1.70;0.70;;;19.50;65.80;;;;;;5040158;28;20651;-60
2023/03/17 06:34:45;;;;;;;1.15;0.85;;;19.50;65.80;;;;;;5042775;28;20226;-54
2023/03/17 06:37:12;;;;;;;1.13;0.70;;;19.50;66.70;;;;;;5040165;28;20279;-56
2023/03/17 06:39:41;;;;;;;0.80;0.60;;;19.50;65.80;;;;;;5040012;28;20191;-59
2023/03/17 06:42:07;;;;;;;1.30;0.77;;;19.50;65.80;;;;;;5044402;28;20218;-51
2023/03/17 06:44:35;;;;;;;1.00;0.90;;;19.50;65.80;;;;;;5044249;28;20222;-58
2023/03/17 06:47:01;;;;;;;1.08;0.82;;;19.50;65.80;;;;;;5037900;28;20203;-54
2023/03/17 06:49:28;;;;;;;1.00;0.70;;;19.50;65.80;;;;;;5044387;28;20196;-57
2023/03/17 06:51:55;;;;;;;1.00;0.80;;;19.50;65.80;;;;;;5045121;28;20667;-54
2023/03/17 06:54:23;;;;;;;0.90;0.80;;;19.50;65.80;;;;;;5043449;28;20227;-55
2023/03/17 06:56:51;;;;;;;0.95;0.70;;;19.50;65.80;;;;;;5038749;28;20710;-63
2023/03/17 06:59:18;;;;;;;0.95;0.70;;;19.50;66.00;;;;;;5036551;28;20207;-59
2023/03/17 07:01:45;;;;;;;1.10;0.70;;;19.50;65.90;;;;;;5037964;28;20195;-58
2023/03/17 07:04:12;;;;;;;1.88;0.80;;;19.50;65.90;;;;;;5044768;28;20214;-53
2023/03/17 07:06:39;;;;;;;0.90;0.70;;;19.50;65.90;;;;;;5045912;28;20204;-57
2023/03/17 07:09:06;;;;;;;1.38;0.90;;;19.50;65.90;;;;;;5045464;28;20214;-67
2023/03/17 07:11:33;;;;;;;0.90;0.70;;;19.50;65.90;;;;;;5046818;28;20203;-55
2023/03/17 07:14:01;;;;;;;1.80;0.70;;;19.60;66.00;;;;;;5041166;28;20215;-68
2023/03/17 07:16:29;;;;;;;1.30;1.20;;;19.60;66.00;;;;;;5041657;28;20204;-58
2023/03/17 07:18:57;;;;;;;1.17;0.80;;;19.60;65.90;;;;;;5050852;28;20199;-64
2023/03/17 07:21:23;;;;;;;1.60;0.80;;;19.60;65.90;;;;;;5043346;28;20605;-55
2023/03/17 07:23:50;;;;;;;1.10;0.80;;;19.70;66.00;;;;;;5049123;28;20207;-58
2023/03/17 07:26:17;;;;;;;1.10;0.90;;;19.70;66.00;;;;;;5046251;28;20187;-58
2023/03/17 07:28:43;;;;;;;1.88;0.85;;;19.70;66.00;;;;;;5038324;28;20195;-65
2023/03/17 07:31:13;;;;;;;0.93;0.70;;;19.70;66.00;;;;;;5041291;28;20196;-59
2023/03/17 07:33:40;;;;;;;1.00;0.70;;;19.70;66.00;;;;;;5039544;28;20246;-56
2023/03/17 07:36:09;;;;;;;0.90;0.70;;;19.70;66.00;;;;;;5038489;28;20297;-56
2023/03/17 07:38:36;;;;;;;1.20;0.90;;;19.70;66.00;;;;;;5036120;28;20195;-64
2023/03/17 07:41:03;;;;;;;1.10;0.73;;;19.80;66.10;;;;;;5037341;28;20210;-60
2023/03/17 07:43:30;;;;;;;1.05;0.88;;;19.80;66.00;;;;;;5035539;28;20306;-58
2023/03/17 07:45:57;;;;;;;1.10;0.80;;;19.80;66.00;;;;;;5043281;28;20602;-58
2023/03/17 07:48:25;;;;;;;1.60;0.85;;;19.80;66.00;;;;;;5051604;28;20195;-58
2023/03/17 07:50:52;;;;;;;0.90;0.80;;;19.80;65.90;;;;;;5040284;28;20203;-55
2023/03/17 07:53:19;;;;;;;1.00;0.80;;;19.90;66.00;;;;;;5042513;28;20219;-65
2023/03/17 07:55:45;;;;;;;0.90;0.80;;;19.90;66.00;;;;;;5043673;28;20194;-58
2023/03/17 07:58:12;;;;;;;1.10;1.00;;;19.90;66.00;;;;;;5048659;28;20188;-65
2023/03/17 08:00:39;;;;;;;0.95;0.77;;;19.90;65.90;;;;;;5044326;28;20192;-62
2023/03/17 08:03:06;;;;;;;1.00;0.80;;;19.90;65.90;;;;;;5040718;28;20287;-65
2023/03/17 08:05:34;;;;;;;1.10;0.82;;;19.90;65.90;;;;;;5040500;28;20196;-55
2023/03/17 08:08:01;;;;;;;1.20;0.80;;;19.90;65.90;;;;;;5046730;28;20666;-66
2023/03/17 08:10:27;;;;;;;1.17;0.90;;;19.90;65.90;;;;;;5050393;28;20199;-57
2023/03/17 08:12:55;;;;;;;0.93;0.80;;;19.90;65.90;;;;;;5043786;28;20624;-61
2023/03/17 08:15:22;;;;;;;0.90;0.70;;;19.90;65.90;;;;;;5041428;28;20223;-55
2023/03/17 08:17:48;;;;;;;1.23;0.88;;;19.90;65.90;;;;;;5047073;28;20196;-60
2023/03/17 08:20:15;;;;;;;1.75;0.82;;;19.90;65.90;;;;;;5047819;28;20195;-62
2023/03/17 08:22:43;;;;;;;0.90;0.80;;;19.90;65.90;;;;;;5044585;28;20294;-58
2023/03/17 08:25:11;;;;;;;1.02;0.80;;;19.90;66.60;;;;;;5049027;28;20301;-66
2023/03/17 08:27:38;;;;;;;1.80;0.90;;;20.00;66.00;;;;;;5045427;28;20279;-59
2023/03/17 08:30:06;;;;;;;0.90;0.80;;;19.90;65.90;;;;;;5045900;28;20192;-68
2023/03/17 08:32:33;;;;;;;1.15;0.90;;;19.90;65.90;;;;;;5045957;28;20544;-56
2023/03/17 08:35:00;;;;;;;1.20;0.90;;;20.00;66.00;;;;;;5044578;28;20220;-56
2023/03/17 08:37:27;;;;;;;1.00;0.90;;;20.00;66.00;;;;;;5046278;28;20199;-58
2023/03/17 08:39:55;;;;;;;1.35;1.05;;;20.00;66.00;;;;;;5047947;28;20195;-60
2023/03/17 08:42:22;;;;;;;1.10;0.77;;;20.00;66.00;;;;;;5042162;28;20269;-60
2023/03/17 08:44:49;;;;;;;1.85;0.75;;;20.00;66.00;;;;;;5040572;28;20203;-55
2023/03/17 08:47:16;;;;;;;1.00;0.80;;;20.00;66.00;;;;;;5045088;28;20199;-62
2023/03/17 08:49:43;;;;;;;1.80;1.00;;;20.00;66.00;;;;;;5043912;28;20214;-54
2023/03/17 08:52:09;;;;;;;1.10;0.95;;;20.00;66.10;;;;;;5045251;28;20196;-61
2023/03/17 08:54:36;;;;;;;2.33;0.77;;;20.00;66.10;;;;;;5050861;28;20211;-54
2023/03/17 08:57:04;;;;;;;1.15;0.80;;;20.00;66.40;;;;;;5040338;28;20191;-55
2023/03/17 08:59:32;;;;;;;2.28;1.52;;;20.00;66.50;;;;;;5045765;28;20218;-55
2023/03/17 09:01:59;;;;;;;2.15;0.80;;;20.00;67.30;;;;;;5046228;28;20651;-57
2023/03/17 09:04:27;;;;;;;1.60;1.30;;;20.00;66.60;;;;;;5047546;28;20679;-57
2023/03/17 09:06:54;;;;;;;1.23;0.80;;;20.00;66.70;;;;;;5050185;28;20200;-52
2023/03/17 09:09:22;;;;;;;1.10;0.90;;;20.00;66.60;;;;;;5046259;28;20219;-55
2023/03/17 09:11:49;;;;;;;1.30;0.98;;;20.00;66.60;;;;;;5046296;28;20191;-53
2023/03/17 09:14:17;;;;;;;1.80;1.35;;;20.00;66.70;;;;;;5044030;28;20454;-52
2023/03/17 09:16:47;;;;;;;2.70;1.70;;;20.00;66.60;;;;;;5047447;28;20196;-58
2023/03/17 09:19:15;;;;;;;1.70;1.50;;;20.00;66.60;;;;;;5046842;28;20683;-57
2023/03/17 09:21:42;;;;;;;2.00;1.38;;;20.00;66.60;;;;;;5046482;28;20314;-60
2023/03/17 09:24:09;;;;;;;2.08;1.50;;;20.00;66.70;;;;;;5049105;28;20555;-56
2023/03/17 09:26:36;;;;;;;2.03;1.40;;;20.00;66.70;;;;;;5042501;28;20195;-53
2023/03/17 09:29:04;;;;;;;1.88;1.38;;;20.00;66.70;;;;;;5046161;28;20196;-52
2023/03/17 09:31:32;;;;;;;1.80;1.40;;;20.00;66.70;;;;;;5046021;28;20203;-54
2023/03/17 09:33:59;;;;;;;2.47;2.28;;;20.00;66.70;;;;;;5049209;28;20603;-55
2023/03/17 09:36:26;;;;;;;2.85;2.38;;;20.00;66.70;;;;;;5049780;28;20557;-59
2023/03/17 09:38:53;;;;;;;3.33;2.03;;;20.00;66.70;;;;;;5048506;28;20199;-56
2023/03/17 09:41:48;;;;;;;2.38;2.15;;;20.00;67.60;;;;;;5037348;28;20204;-53
2023/03/17 09:44:30;;;;;;;2.80;2.33;;;20.10;66.90;;;;;;5045993;28;20267;-55
2023/03/17 09:47:08;;;;;;;2.25;1.58;;;20.10;66.90;;;;;;5047668;28;20207;-55
2023/03/17 09:49:43;;;;;;;3.00;2.20;;;20.10;66.90;;;;;;5038429;28;20195;-55
2023/03/17 09:52:13;;;;;;;3.10;2.28;;;20.10;67.00;;;;;;5046087;28;20195;-67
2023/03/17 09:54:41;;;;;;;4.70;2.30;;;20.10;67.00;;;;;;5046249;28;20314;-63
2023/03/17 09:57:15;;;;;;;3.30;2.45;;;20.10;67.80;;;;;;5039988;28;20192;-55
2023/03/17 09:59:45;;;;;;;3.60;2.50;;;20.10;67.00;;;;;;5036406;28;20274;-52
2023/03/17 10:02:21;;;;;;;3.03;2.78;;;20.10;67.00;;;;;;5040812;28;20294;-62
2023/03/17 10:04:48;;;;;;;4.10;2.72;;;20.10;67.00;;;;;;5042412;28;21686;-63
2023/03/17 10:07:19;;;;;;;3.80;3.17;;;20.10;67.00;;;;;;5045818;28;20196;-64
2023/03/17 10:09:53;;;;;;;5.40;2.63;;;20.10;67.10;;;;;;5041037;28;20616;-63
2023/03/17 10:12:28;;;;;;;3.40;2.00;;;20.20;67.30;;;;;;5035987;28;20219;-70
2023/03/17 10:14:59;;;;;;;3.03;2.00;;;20.20;67.30;;;;;;5043373;28;20215;-65
2023/03/17 10:17:31;;;;;;;2.85;2.45;;;20.20;67.30;;;;;;5043822;28;20207;-61
2023/03/17 10:20:03;;;;;;;2.97;2.10;;;20.20;67.40;;;;;;5043107;28;20199;-63
2023/03/17 10:22:36;;;;;;;2.85;2.42;;;20.20;67.50;;;;;;5047390;28;20219;-66
2023/03/17 10:25:10;;;;;;;5.75;2.25;;;20.20;67.50;;;;;;5038431;28;20192;-68
2023/03/17 10:27:38;;;;;;;2.67;1.80;;;20.20;67.60;;;;;;5042470;28;20197;-60
2023/03/17 10:30:20;;;;;;;2.60;1.90;;;20.30;67.70;;;;;;5046381;28;20278;-67
2023/03/17 10:32:48;;;;;;;3.00;2.28;;;20.30;68.50;;;;;;5041555;28;20665;-63
2023/03/17 10:35:16;;;;;;;6.05;3.15;;;20.30;68.50;;;;;;5041519;28;20219;-58
2023/03/17 10:37:46;;;;;;;4.35;3.45;;;20.30;67.90;;;;;;5048290;28;20192;-61
2023/03/17 10:40:23;;;;;;;4.32;2.58;;;20.30;67.90;;;;;;5038866;28;20191;-60
2023/03/17 10:42:55;;;;;;;5.30;3.60;;;20.30;68.10;;;;;;5036655;28;20258;-61
2023/03/17 10:45:27;;;;;;;5.68;3.55;;;20.40;68.20;;;;;;5039212;28;20203;-59
2023/03/17 10:47:57;;;;;;;5.50;3.40;;;20.40;68.30;;;;;;5043760;28;20192;-59
2023/03/17 10:50:27;;;;;;;5.38;4.30;;;20.40;68.40;;;;;;5032841;28;20199;-63
2023/03/17 10:52:58;;;;;;;6.00;3.80;;;20.40;68.40;;;;;;5031042;28;20227;-62
2023/03/17 10:55:29;;;;;;;6.32;5.00;;;20.40;68.50;;;;;;5041476;28;20266;-73
2023/03/17 10:58:05;;;;;;;5.68;4.55;;;20.40;68.60;;;;;;5047562;28;20199;-58
2023/03/17 11:00:35;;;;;;;6.13;4.22;;;20.40;68.70;;;;;;5039196;28;20290;-57
2023/03/17 11:03:14;;;;;;;6.07;5.05;;;20.40;68.70;;;;;;5034544;28;20594;-58
2023/03/17 11:05:55;;;;;;;4.75;4.25;;;20.40;68.90;;;;;;5031614;28;20222;-57
2023/03/17 11:08:22;;;;;;;7.50;4.47;;;20.50;69.00;;;;;;5032043;28;20675;-61
2023/03/17 11:10:55;;;;;;;5.22;4.60;;;20.50;69.00;;;;;;5034542;28;20552;-65
2023/03/17 11:13:28;;;;;;;5.25;4.45;;;20.50;69.10;;;;;;5035676;28;20203;-59
2023/03/17 11:16:06;;;;;;;5.75;4.30;;;20.50;69.10;;;;;;5033477;28;20219;-64
2023/03/17 11:18:37;;;;;;;9.00;4.75;;;20.50;69.20;;;;;;5040236;28;20211;-61
2023/03/17 11:21:08;;;;;;;5.28;4.75;;;20.50;69.20;;;;;;5037803;28;20561;-58
2023/03/17 11:23:52;;;;;;;6.53;3.72;;;20.50;69.20;;;;;;5045397;28;20191;-64
2023/03/17 11:26:37;;;;;;;5.03;3.83;;;20.50;69.30;;;;;;5043042;28;20559;-63
2023/03/17 11:29:22;;;;;;;5.10;4.28;;;20.50;69.30;;;;;;5040431;28;20203;-66
2023/03/17 11:31:57;;;;;;;5.35;3.72;;;20.50;69.10;;;;;;5037340;28;20223;-63
2023/03/17 11:34:40;;;;;;;4.45;3.47;;;20.50;67.80;;;;;;5045350;28;20226;-61
2023/03/17 11:37:21;;;;;;;4.78;3.13;;;20.40;65.20;;;;;;5045284;28;20487;-59
2023/03/17 11:39:55;;;;;;;4.40;3.15;;;20.40;63.60;;;;;;5039375;28;20659;-62
2023/03/17 11:42:26;;;;;;;4.68;3.45;;;20.40;63.40;;;;;;5040632;28;20204;-67
2023/03/17 11:45:09;;;;;;;5.15;2.33;;;20.40;63.10;;;;;;5048242;28;20622;-65
2023/03/17 11:47:46;;;;;;;4.35;2.72;;;20.40;63.00;;;;;;5044786;28;20680;-66
2023/03/17 11:50:24;;;;;;;4.75;2.97;;;20.40;62.00;;;;;;5043720;28;20203;-65
2023/03/17 11:53:05;;;;;;;5.00;2.97;;;20.40;60.90;;;;;;5048056;28;20206;-62
2023/03/17 11:55:41;;;;;;;2.97;1.90;;;20.40;61.00;;;;;;5047433;28;20215;-62
2023/03/17 11:58:15;;;;;;;2.72;2.35;;;20.40;60.80;;;;;;5044921;28;20313;-62
2023/03/17 12:00:49;;;;;;;3.47;2.15;;;20.40;60.80;;;;;;5052116;28;20195;-57
2023/03/17 12:03:23;;;;;;;4.05;2.42;;;20.40;60.60;;;;;;5042818;28;20215;-62
2023/03/17 12:05:57;;;;;;;4.20;2.50;;;20.40;60.40;;;;;;5049082;28;20214;-60
2023/03/17 12:08:29;;;;;;;4.55;2.85;;;20.40;60.20;;;;;;5043979;28;20229;-61
2023/03/17 12:10:58;;;;;;;4.32;2.20;;;20.40;60.30;;;;;;5051435;28;20210;-68
2023/03/17 12:13:31;;;;;;;2.58;1.92;;;20.40;59.50;;;;;;5039094;28;20211;-59
2023/03/17 12:16:04;;;;;;;3.90;2.45;;;20.40;59.60;;;;;;5038607;28;20219;-60
2023/03/17 12:18:34;;;;;;;2.78;1.98;;;20.40;59.40;;;;;;5033086;28;20553;-64
2023/03/17 12:21:08;;;;;;;2.13;1.70;;;20.40;59.50;;;;;;5036134;28;20270;-60
2023/03/17 12:23:41;;;;;;;4.38;2.05;;;20.40;59.30;;;;;;5039977;28;20200;-57
2023/03/17 12:26:12;;;;;;;3.97;1.75;;;20.40;59.30;;;;;;5049238;28;20675;-58
2023/03/17 12:28:46;;;;;;;3.97;2.08;;;20.40;59.10;;;;;;5044358;28;20206;-61
2023/03/17 12:31:17;;;;;;;2.75;1.90;;;20.30;58.90;;;;;;5041967;28;20199;-63
2023/03/17 12:33:50;;;;;;;2.97;2.13;;;20.30;59.00;;;;;;5041196;28;20734;-62
2023/03/17 12:36:19;;;;;;;2.63;1.90;;;20.30;58.90;;;;;;5046248;28;20535;-57
2023/03/17 12:38:52;;;;;;;2.00;1.80;;;20.30;58.70;;;;;;5038356;28;20192;-67
2023/03/17 12:41:41;;;;;;;1.70;1.55;;;20.30;58.70;;;;;;5041735;28;20207;-63
2023/03/17 12:44:21;;;;;;;2.53;1.70;;;20.30;58.60;;;;;;5044792;28;20195;-69
2023/03/17 12:47:20;;;;;;;2.40;2.20;;;20.30;58.50;;;;;;5041286;28;20214;-67
2023/03/17 12:50:05;;;;;;;3.15;1.95;;;20.30;58.50;;;;;;5040266;28;20643;-68
2023/03/17 12:52:42;;;;;;;1.90;1.67;;;20.30;58.50;;;;;;5042952;28;20687;-63
2023/03/17 12:55:13;;;;;;;6.65;1.70;;;20.30;58.60;;;;;;5041646;28;20845;-61
2023/03/17 12:57:42;;;;;;;2.65;2.28;;;20.30;58.30;;;;;;5040806;28;20196;-67